Lake Lillian, MN

5:06 AM CDT on May 06, 2015 (GMT -0500)
Hutchinson Municipal-Butler | | Change Station
CLOSE
Current Station
Airport
Location: Hutchinson,
Elevation: 1060 ft
Nearby Weather Stations

Elev 1060 ft 44.86 °N, 94.39 °W | Updated 14 minutes ago

Overcast
Overcast
55 °F
Feels Like 55 °F
N
13
Wind Variable Wind from East

Today
High -- | Low -- °F
--% Chance of Precip.
Yesterday
High -- | Low -- °F
Precip. -- in
6:02 AM 8:31 PM
Waning Gibbous, 95% visible
Pressure 30.04 in
Visibility 0.8 miles
Clouds Overcast 200 ft
Dew Point 55 °F
Humidity 100%
Rainfall 0.00 in
Snow Depth Not available.
UV 0 out of 12
Pollen 10.10 out of 12
Air Quality Not available.
Flu Activity Sporadic
METAR KHCD 060952Z AUTO 10011KT 3/4SM BR OVC002 13/13 A3004 RMK AO2 T01300130

More Conditions Fewer Conditions

Pressure 30.04 in
Visibility 0.8 miles
Clouds Overcast 200 ft
Dew Point 55 °F
Humidity 100%
Rainfall 0.00 in
Snow Depth Not available.
UV 0 out of 12
Pollen 10.10 out of 12
Air Quality Not available.
Flu Activity Sporadic
METAR KHCD 060952Z AUTO 10011KT 3/4SM BR OVC002 13/13 A3004 RMK AO2 T01300130

More Conditions Fewer Conditions

10-Day Weather Forecast

Almanac

Astronomy

May. 06, 2015 Rise Set
Actual Time
Civil Twilight
Nautical Twilight
Astronomical Twilight
Moon
Length of Visible Light
Length of Day
Tomorrow will be .
, % of the Moon is Illuminated

Today's Extremes

State Highs State Lows

Community

WunderPhotos

Upload Photos

1,818,859 photos uploaded!

WunderBlogs® & News

Nearby

Air Quality

  Air Quality AQ Index Pollutant
Not available.

Snow Depth

Station Depth Elevation

Earthquake Activity

City Distance Mag. Time & Date
Minimum magnitude displayed is 2.5.

Coastal Water Temperatures

Place Temperature

Stations

Nearby Weather Stations

Station Location Temp. Windchill Dew Point Humidity Wind Precip. Elev Updated Type